KTPF/TPF METAR and TAF weather

Enter ICAO airport designator
Station Type Date Time Source
KTPF METAR 2022/01/23 12:35 UTC NOAA

KTPF 231235Z AUTO 00000KT 10SM BKN005 OVC013 08/08 A3018


Station Type Date Time Source
KTPF Decoded METAR 2022/01/23 12:35 UTC NOAA

Tampa, Peter O Knight Airport, FL, United States (KTPF) 27-54-56N 082-26-57W
Jan 23, 2022 - 07:35 AM EST / 2022.01.23 1235 UTC
Wind: Calm:0
Visibility: 10 mile(s):0
Sky conditions: overcast
Temperature: 46 F (8 C)
Dew Point: 46 F (8 C)
Relative Humidity: 100%
Pressure (altimeter): 30.18 in. Hg (1022 hPa)
ob: KTPF 231235Z AUTO 00000KT 10SM BKN005 OVC013 08/08 A3018 RMK AO2
cycle: 12

Station Type Date Time Source
KTPF TAF UTC NOAA

Error!

Example: see airport list